createdAt,value
2019-04-04T00:01:08.505Z,100090.34
2019-04-04T00:06:10.582Z,100089.46
2019-04-04T00:11:12.592Z,100073.22
2019-04-04T00:16:16.658Z,100072.30
2019-04-04T00:21:18.947Z,100065.72
2019-04-04T00:26:23.899Z,100070.73
2019-04-04T00:31:28.630Z,100074.70
2019-04-04T00:36:34.693Z,100073.23
2019-04-04T00:41:36.408Z,100066.06
2019-04-04T00:46:38.737Z,100060.91
2019-04-04T00:51:40.798Z,100065.47
2019-04-04T00:56:42.808Z,100060.56
2019-04-04T01:01:47.885Z,100036.77
2019-04-04T01:06:51.275Z,100024.86
2019-04-04T01:11:53.276Z,100053.29
2019-04-04T01:16:55.547Z,100045.00
2019-04-04T01:21:57.542Z,100047.50
2019-04-04T01:27:01.562Z,100076.14
2019-04-04T01:32:06.457Z,100081.06
2019-04-04T01:37:08.625Z,100073.65
2019-04-04T01:42:10.832Z,100071.06
2019-04-04T01:47:12.938Z,100071.45
2019-04-04T01:52:15.283Z,100056.13
2019-04-04T01:57:17.583Z,100046.29
2019-04-04T02:02:19.669Z,100049.20
2019-04-04T02:07:21.772Z,100066.59
2019-04-04T02:12:25.587Z,100065.80
2019-04-04T02:17:29.018Z,100049.52
2019-04-04T02:22:34.011Z,100042.22
2019-04-04T02:27:37.909Z,100035.97
2019-04-04T02:32:43.864Z,100021.16
2019-04-04T02:37:48.186Z,100015.08
2019-04-04T02:42:53.955Z,100013.20
2019-04-04T02:47:54.099Z,99993.84
2019-04-04T02:52:56.226Z,100002.43
2019-04-04T02:57:58.589Z,100005.80
2019-04-04T03:03:00.659Z,100001.58
2019-04-04T03:08:04.175Z,100001.84
2019-04-04T03:13:06.461Z,100005.48
2019-04-04T03:18:08.458Z,99995.31
2019-04-04T03:23:10.533Z,99998.59
2019-04-04T03:28:12.562Z,99979.74
2019-04-04T03:33:16.828Z,99994.59
2019-04-04T03:38:18.836Z,99969.73
2019-04-04T03:43:20.935Z,99975.38
2019-04-04T03:48:22.926Z,99989.08
2019-04-04T03:53:24.952Z,99977.94
2019-04-04T03:58:28.033Z,99964.84
2019-04-04T04:03:32.910Z,99977.02
2019-04-04T04:08:35.144Z,99989.67
2019-04-04T04:13:37.407Z,99990.77
2019-04-04T04:18:39.452Z,99996.20
2019-04-04T04:23:41.489Z,99995.69
2019-04-04T04:28:43.642Z,99997.38
2019-04-04T04:33:46.272Z,99994.37
2019-04-04T04:38:48.309Z,99995.92
2019-04-04T04:43:50.533Z,99998.17
2019-04-04T04:48:52.533Z,100009.00
2019-04-04T04:53:54.520Z,100001.77
2019-04-04T04:58:59.501Z,99984.06
2019-04-04T05:04:02.680Z,100001.62
2019-04-04T05:09:05.462Z,99999.73
2019-04-04T05:14:07.649Z,100000.48
2019-04-04T05:19:09.658Z,100013.91
2019-04-04T05:24:11.722Z,100014.84
2019-04-04T05:29:14.160Z,100017.97
2019-04-04T05:34:16.568Z,100014.08
2019-04-04T05:39:18.773Z,100014.64
2019-04-04T05:44:23.676Z,100020.83
2019-04-04T05:49:26.294Z,100013.05
2019-04-04T05:54:28.334Z,100018.34
2019-04-04T05:59:30.359Z,100030.80
2019-04-04T06:04:35.246Z,100047.33
2019-04-04T06:09:37.565Z,100063.11
2019-04-04T06:14:46.171Z,100057.01
2019-04-04T06:19:48.240Z,100063.45
2019-04-04T06:24:52.148Z,100064.56
2019-04-04T06:29:54.457Z,100059.59
2019-04-04T06:34:56.854Z,100059.53
2019-04-04T06:45:16.159Z,100053.81
2019-04-04T06:50:18.580Z,100075.31
2019-04-04T06:55:20.576Z,100077.41
2019-04-04T07:00:25.320Z,100077.06
2019-04-04T07:05:28.537Z,100086.70
2019-04-04T07:10:34.845Z,100088.51
2019-04-04T07:15:46.209Z,100107.98
2019-04-04T07:20:40.950Z,100093.81
2019-04-04T07:25:43.074Z,100083.70
2019-04-04T07:30:45.067Z,100083.56
2019-04-04T07:35:49.616Z,100081.45
2019-04-04T07:40:51.706Z,100083.70
2019-04-04T07:45:55.269Z,100086.47
2019-04-04T07:50:58.561Z,100085.73
2019-04-04T07:56:02.709Z,100081.45
2019-04-04T08:01:04.813Z,100076.17
2019-04-04T08:06:12.199Z,100099.56
2019-04-04T08:11:14.208Z,100099.54
2019-04-04T08:16:16.442Z,100096.73
2019-04-04T08:21:18.489Z,100090.58
2019-04-04T08:26:20.483Z,100067.73
2019-04-04T08:31:22.471Z,100089.34
2019-04-04T08:36:24.664Z,100098.59
2019-04-04T08:41:26.774Z,100102.94
2019-04-04T08:46:29.217Z,100113.83
2019-04-04T08:51:31.274Z,100121.88
2019-04-04T08:56:33.677Z,100133.96
2019-04-04T09:01:35.999Z,100158.97
2019-04-04T09:06:38.272Z,100168.66
2019-04-04T09:11:40.352Z,100180.88
2019-04-04T09:16:44.747Z,100190.65
2019-04-04T09:21:47.008Z,100182.11
2019-04-04T09:26:49.593Z,100182.50
2019-04-04T09:31:54.167Z,100175.64
2019-04-04T09:36:57.566Z,100171.50
2019-04-04T09:41:59.599Z,100165.86
2019-04-04T09:47:05.600Z,100168.69
2019-04-04T09:52:05.769Z,100183.67
2019-04-04T09:57:07.756Z,100200.28
2019-04-04T10:02:12.813Z,100202.02
2019-04-04T10:07:15.251Z,100210.83
2019-04-04T10:12:17.690Z,100203.58
2019-04-04T10:17:19.924Z,100185.11
2019-04-04T10:22:21.973Z,100169.23
2019-04-04T10:27:26.091Z,100164.19
2019-04-04T10:32:28.122Z,100173.61
2019-04-04T10:37:30.346Z,100166.45
2019-04-04T10:42:33.910Z,100175.30
2019-04-04T10:47:36.293Z,100179.41
2019-04-04T10:52:38.297Z,100179.53
2019-04-04T10:57:42.783Z,100180.56
2019-04-04T11:02:44.807Z,100165.48
2019-04-04T11:07:47.287Z,100165.48
2019-04-04T11:12:49.349Z,100183.72
2019-04-04T11:17:53.821Z,100176.45
2019-04-04T11:22:55.824Z,100171.58
2019-04-04T11:27:57.843Z,100159.42
2019-04-04T11:32:59.847Z,100161.25
2019-04-04T11:38:01.861Z,100157.66
2019-04-04T11:43:03.889Z,100154.24
2019-04-04T11:48:05.884Z,100168.00
2019-04-04T11:53:08.045Z,100181.96
2019-04-04T11:58:10.139Z,100191.42
2019-04-04T12:03:12.277Z,100191.42
2019-04-04T12:08:16.042Z,100197.14
2019-04-04T12:13:18.164Z,100189.92
2019-04-04T12:18:26.381Z,100193.40
2019-04-04T12:23:28.467Z,100193.91
2019-04-04T12:28:30.459Z,100194.34
2019-04-04T12:33:32.508Z,100214.56
2019-04-04T12:38:34.704Z,100218.55
2019-04-04T12:43:38.947Z,100216.68
2019-04-04T12:48:41.036Z,100224.27
2019-04-04T12:53:43.154Z,100224.27
2019-04-04T12:58:45.672Z,100218.96
2019-04-04T13:03:47.780Z,100229.76
2019-04-04T13:08:51.594Z,100227.41
2019-04-04T13:13:54.018Z,100218.16
2019-04-04T13:18:56.085Z,100218.73
2019-04-04T13:23:58.114Z,100220.68
2019-04-04T13:29:00.435Z,100217.02
2019-04-04T13:34:02.726Z,100217.02
2019-04-04T13:39:08.730Z,100231.38
2019-04-04T13:44:10.774Z,100227.48
2019-04-04T13:49:12.830Z,100209.16
2019-04-04T13:54:15.108Z,100208.99
2019-04-04T13:59:17.125Z,100213.55
2019-04-04T14:04:20.430Z,100214.89
2019-04-04T14:09:22.949Z,100231.44
2019-04-04T14:14:26.513Z,100251.77
2019-04-04T14:19:31.441Z,100246.39
2019-04-04T14:24:33.120Z,100250.81
2019-04-04T14:29:35.154Z,100260.03
2019-04-04T14:34:37.155Z,100261.70
2019-04-04T14:39:39.177Z,100265.59
2019-04-04T14:44:41.181Z,100251.83
2019-04-04T14:49:45.791Z,100250.64
2019-04-04T14:54:47.321Z,100253.48
2019-04-04T14:59:49.318Z,100271.61
2019-04-04T15:04:51.634Z,100289.36
2019-04-04T15:09:53.632Z,100282.14
2019-04-04T15:14:56.748Z,100294.77
2019-04-04T15:19:59.017Z,100295.03
2019-04-04T15:25:01.417Z,100295.03
2019-04-04T15:30:05.207Z,100299.14
2019-04-04T15:35:07.513Z,100297.67
2019-04-04T15:40:09.645Z,100308.02
2019-04-04T15:45:12.286Z,100310.47
2019-04-04T15:50:14.430Z,100312.20
2019-04-04T15:55:16.582Z,100312.20
2019-04-04T16:00:18.696Z,100305.94
2019-04-04T16:05:20.749Z,100299.96
2019-04-04T16:10:22.783Z,100299.96
2019-04-04T16:15:25.259Z,100331.17
2019-04-04T16:20:27.258Z,100348.87
2019-04-04T16:25:29.439Z,100348.87
2019-04-04T16:30:31.735Z,100362.64
2019-04-04T16:35:33.861Z,100369.02
2019-04-04T16:40:37.725Z,100371.39
2019-04-04T16:45:39.938Z,100373.23
2019-04-04T16:50:45.383Z,100368.61
2019-04-04T16:55:47.895Z,100379.53
2019-04-04T17:00:51.664Z,100378.56
2019-04-04T17:05:53.980Z,100379.91
2019-04-04T17:10:56.319Z,100388.23
2019-04-04T17:16:00.279Z,100397.42
2019-04-04T17:21:06.685Z,100400.89
2019-04-04T17:26:09.019Z,100394.41
2019-04-04T17:31:12.644Z,100453.07
2019-04-04T17:36:15.269Z,100399.68
2019-04-04T17:41:17.538Z,100407.37
2019-04-04T17:46:21.939Z,100405.22
2019-04-04T17:51:25.062Z,100425.03
2019-04-04T17:56:27.660Z,100434.77
2019-04-04T18:01:29.666Z,100438.16
2019-04-04T18:06:31.864Z,100444.00
2019-04-04T18:11:34.261Z,100454.93
2019-04-04T18:16:36.266Z,100456.34
2019-04-04T18:21:38.322Z,100451.73
2019-04-04T18:26:41.696Z,100450.85
2019-04-04T18:31:46.450Z,100457.00
2019-04-04T18:36:48.662Z,100462.38
2019-04-04T18:41:50.727Z,100461.50
2019-04-04T18:46:53.826Z,100463.50
2019-04-04T18:51:55.918Z,100486.12
2019-04-04T18:56:59.316Z,100488.97
2019-04-04T19:02:06.518Z,100500.92
2019-04-04T19:07:12.339Z,100506.90
2019-04-04T19:12:15.805Z,100527.91
2019-04-04T19:17:18.057Z,100531.14
2019-04-04T19:22:20.396Z,100533.20
2019-04-04T19:27:23.019Z,100544.52
2019-04-04T19:32:27.203Z,100539.69
2019-04-04T19:37:29.370Z,100535.13
2019-04-04T19:42:31.372Z,100527.34
2019-04-04T19:47:36.155Z,100540.23
2019-04-04T19:52:38.199Z,100542.02
2019-04-04T19:57:40.200Z,100554.74
2019-04-04T20:02:44.018Z,100558.25
2019-04-04T20:07:50.164Z,100563.66
2019-04-04T20:12:54.632Z,100561.08
2019-04-04T20:17:57.541Z,100556.86
2019-04-04T20:23:00.591Z,100552.28
2019-04-04T20:28:02.700Z,100553.62
2019-04-04T20:33:04.699Z,100551.92
2019-04-04T20:38:07.287Z,100553.91
2019-04-04T20:43:09.901Z,100556.86
2019-04-04T20:48:13.878Z,100566.59
2019-04-04T20:53:16.309Z,100565.96
2019-04-04T20:58:19.755Z,100569.48
2019-04-04T21:03:24.293Z,100579.98
2019-04-04T21:08:26.491Z,100587.09
2019-04-04T21:13:30.083Z,100589.89
2019-04-04T21:18:34.668Z,100601.45
2019-04-04T21:23:36.687Z,100599.45
2019-04-04T21:28:41.392Z,100607.05
2019-04-04T21:33:46.008Z,100615.73
2019-04-04T21:38:49.923Z,100617.67
2019-04-04T21:43:51.932Z,100620.92
2019-04-04T21:48:53.941Z,100623.98
2019-04-04T21:53:57.784Z,100626.64
2019-04-04T21:59:02.842Z,100630.39
2019-04-04T22:04:10.294Z,100626.31
2019-04-04T22:09:22.444Z,100620.79
2019-04-04T22:14:24.741Z,100617.25
2019-04-04T22:19:26.771Z,100613.44
2019-04-04T22:24:29.077Z,100626.75
2019-04-04T22:29:34.273Z,100630.77
2019-04-04T22:34:38.187Z,100629.74
2019-04-04T22:39:40.258Z,100632.67
2019-04-04T22:44:42.937Z,100643.09
2019-04-04T22:49:45.013Z,100649.16
2019-04-04T22:54:47.149Z,100648.05
2019-04-04T22:59:54.105Z,100649.64
2019-04-04T23:04:56.210Z,100652.19
2019-04-04T23:10:00.700Z,100656.59
2019-04-04T23:15:04.878Z,100658.86
2019-04-04T23:20:07.586Z,100658.88
2019-04-04T23:25:10.019Z,100652.66
2019-04-04T23:30:13.496Z,100656.38
2019-04-04T23:35:16.710Z,100672.11
2019-04-04T23:40:20.945Z,100668.59
2019-04-04T23:45:27.693Z,100673.39
2019-04-04T23:50:32.878Z,100667.23
2019-04-04T23:55:35.192Z,100678.09
